Time;durP1;ratioP1;P1;durP2;ratioP2;P2;SDS_P1;SDS_P2;PMS_P1;PMS_P2;Temp;Humidity;BMP_temperature;BMP_pressure;BME280_temperature;BME280_humidity;BME280_pressure;Samples;Min_cycle;Max_cycle;Signal;HPM_P1;HPM_P2
2022/05/09 00:00:12;;;;;;;9.02;8.15;;;13.10;99.90;;;;;;4962019;28;20031;-78
2022/05/09 00:02:38;;;;;;;8.27;7.57;;;13.10;99.90;;;;;;4958336;28;20118;-79
2022/05/09 00:05:05;;;;;;;8.85;8.15;;;13.00;99.90;;;;;;4957423;29;20024;-79
2022/05/09 00:07:31;;;;;;;8.98;8.07;;;13.00;99.90;;;;;;4956858;28;20046;-79
2022/05/09 00:09:56;;;;;;;9.23;8.43;;;13.00;99.90;;;;;;4957305;28;20027;-79
2022/05/09 00:12:22;;;;;;;9.60;8.68;;;12.90;99.90;;;;;;4957590;28;20090;-79
2022/05/09 00:14:48;;;;;;;10.20;9.35;;;12.80;99.90;;;;;;4955528;29;20047;-78
2022/05/09 00:17:13;;;;;;;8.48;7.78;;;12.80;99.90;;;;;;4956879;28;20032;-79
2022/05/09 00:19:39;;;;;;;8.38;7.65;;;12.80;99.90;;;;;;4960102;28;20035;-77
2022/05/09 00:22:05;;;;;;;10.07;9.25;;;12.70;99.90;;;;;;4958324;28;20484;-79
2022/05/09 00:24:31;;;;;;;10.00;8.73;;;12.70;99.90;;;;;;4955223;29;20027;-80
2022/05/09 00:26:57;;;;;;;8.73;8.02;;;12.70;99.90;;;;;;4956594;28;20089;-79
2022/05/09 00:29:23;;;;;;;9.95;8.95;;;12.60;99.90;;;;;;4954667;29;20098;-78
2022/05/09 00:31:51;;;;;;;9.80;9.00;;;12.60;99.90;;;;;;4956270;28;20564;-79
2022/05/09 00:34:21;;;;;;;9.23;8.35;;;12.60;99.90;;;;;;4955679;28;20361;-78
2022/05/09 00:36:48;;;;;;;9.30;8.40;;;12.50;99.90;;;;;;4955367;28;20428;-79
2022/05/09 00:39:15;;;;;;;10.30;8.82;;;12.50;99.90;;;;;;4954328;28;20043;-79
2022/05/09 00:41:42;;;;;;;10.30;8.95;;;12.40;99.90;;;;;;4954504;28;20054;-79
2022/05/09 00:44:10;;;;;;;9.73;8.93;;;12.40;99.90;;;;;;4955807;28;20103;-79
2022/05/09 00:46:41;;;;;;;10.02;9.13;;;12.40;99.90;;;;;;4955816;28;20103;-78
2022/05/09 00:49:26;;;;;;;;;;;12.30;99.90;;;;;;4956170;29;20031;-79
2022/05/09 00:51:57;;;;;;;11.48;8.77;;;12.40;99.90;;;;;;4955155;28;19913;-80
2022/05/09 00:54:25;;;;;;;11.50;8.95;;;12.50;99.90;;;;;;4957653;28;20479;-79
2022/05/09 00:57:01;;;;;;;9.82;8.93;;;12.50;99.90;;;;;;4957193;28;20126;-79
2022/05/09 00:59:29;;;;;;;9.02;8.13;;;12.50;99.90;;;;;;4954941;29;20035;-79
2022/05/09 01:01:54;;;;;;;8.70;7.90;;;12.40;99.90;;;;;;4954165;28;20415;-78
2022/05/09 01:04:26;;;;;;;9.82;8.73;;;12.40;99.90;;;;;;4954446;28;20128;-80
2022/05/09 01:06:53;;;;;;;10.57;9.48;;;12.40;99.90;;;;;;4953452;28;20054;-79
2022/05/09 01:09:18;;;;;;;10.82;9.20;;;12.60;99.90;;;;;;4953968;29;20428;-79
2022/05/09 01:11:46;;;;;;;9.75;8.65;;;12.60;99.90;;;;;;4953675;28;20055;-79
2022/05/09 01:14:28;;;;;;;13.13;9.77;;;12.70;99.90;;;;;;4953555;29;20062;-78
2022/05/09 01:16:54;;;;;;;10.38;9.15;;;12.60;99.90;;;;;;4952912;29;20040;-79
2022/05/09 01:19:41;;;;;;;13.70;9.65;;;12.40;99.90;;;;;;4954805;28;20035;-80
2022/05/09 01:22:24;;;;;;;9.98;8.98;;;12.20;99.90;;;;;;4953781;28;20039;-78
2022/05/09 01:24:51;;;;;;;10.73;9.10;;;12.20;99.90;;;;;;4953146;29;20054;-78
2022/05/09 01:27:16;;;;;;;11.52;9.35;;;12.20;99.90;;;;;;4953109;29;20027;-79
2022/05/09 01:29:54;;;;;;;10.73;9.38;;;12.10;99.90;;;;;;4954124;29;20049;-80
2022/05/09 01:32:30;;;;;;;10.45;9.45;;;12.10;99.90;;;;;;4953498;28;20028;-78
2022/05/09 01:35:03;;;;;;;10.80;9.52;;;12.00;99.90;;;;;;4953704;28;20122;-79
2022/05/09 01:37:31;;;;;;;11.10;10.00;;;12.00;99.90;;;;;;4954813;28;20357;-78
2022/05/09 01:39:56;;;;;;;12.05;10.48;;;12.00;99.90;;;;;;4955142;28;20353;-79
2022/05/09 01:42:22;;;;;;;12.05;9.60;;;11.90;99.90;;;;;;4954510;28;20031;-80
2022/05/09 01:44:48;;;;;;;13.18;9.68;;;11.90;99.90;;;;;;4955096;28;20024;-79
2022/05/09 01:49:58;;;;;;;10.82;9.82;;;11.80;99.90;;;;;;4954990;29;20051;-80
2022/05/09 01:52:24;;;;;;;9.88;8.98;;;11.80;99.90;;;;;;4954670;28;20384;-79
2022/05/09 01:54:49;;;;;;;13.50;10.25;;;11.80;99.90;;;;;;4954371;28;20054;-79
2022/05/09 01:57:15;;;;;;;10.48;9.43;;;11.70;99.90;;;;;;4954402;28;20484;-78
2022/05/09 01:59:42;;;;;;;10.98;9.98;;;11.70;99.90;;;;;;4953830;28;20031;-78
2022/05/09 02:02:20;;;;;;;11.38;10.20;;;11.70;99.90;;;;;;4954133;28;20038;-79
2022/05/09 02:04:47;;;;;;;10.25;9.15;;;11.70;99.90;;;;;;4953524;29;20027;-80
2022/05/09 02:07:14;;;;;;;11.82;10.73;;;11.70;99.90;;;;;;4955207;28;20031;-80
2022/05/09 02:09:45;;;;;;;12.18;10.85;;;11.60;99.90;;;;;;4953451;29;20039;-79
2022/05/09 02:12:12;;;;;;;10.88;9.98;;;11.60;99.90;;;;;;4952560;28;20035;-79
2022/05/09 02:14:38;;;;;;;15.05;10.02;;;11.60;99.90;;;;;;4955634;28;20035;-78
2022/05/09 02:17:06;;;;;;;11.82;10.70;;;11.60;99.90;;;;;;4953482;29;20066;-80
2022/05/09 02:19:32;;;;;;;11.82;10.52;;;11.60;99.90;;;;;;4952710;29;20039;-79
2022/05/09 02:21:59;;;;;;;11.77;9.90;;;11.50;99.90;;;;;;4952800;28;20032;-79
2022/05/09 02:24:27;;;;;;;10.75;9.68;;;11.60;99.90;;;;;;4954607;28;20034;-77
2022/05/09 02:26:52;;;;;;;10.75;9.85;;;11.70;99.90;;;;;;4957462;28;20448;-79
2022/05/09 02:29:18;;;;;;;13.55;10.77;;;11.70;99.90;;;;;;4957386;28;20032;-79
2022/05/09 02:31:43;;;;;;;11.82;10.50;;;11.60;99.90;;;;;;4957767;28;20024;-80
2022/05/09 02:34:09;;;;;;;12.32;10.48;;;11.50;99.90;;;;;;4956432;29;20031;-80
2022/05/09 02:36:34;;;;;;;11.48;10.38;;;11.50;99.90;;;;;;4956461;29;20078;-79
2022/05/09 02:39:00;;;;;;;12.15;10.98;;;11.40;99.90;;;;;;4957854;28;20035;-78
2022/05/09 02:41:26;;;;;;;13.20;10.75;;;11.40;99.90;;;;;;4955657;28;20031;-77
2022/05/09 02:43:51;;;;;;;10.90;10.05;;;11.40;99.90;;;;;;4955668;29;20400;-78
2022/05/09 02:46:17;;;;;;;11.32;10.35;;;11.50;99.90;;;;;;4956076;29;20523;-78
2022/05/09 02:48:43;;;;;;;11.77;10.65;;;11.40;99.90;;;;;;4956545;28;20027;-79
2022/05/09 02:51:09;;;;;;;11.90;10.70;;;11.40;99.90;;;;;;4955426;28;20428;-78
2022/05/09 02:53:35;;;;;;;11.48;10.30;;;11.50;99.90;;;;;;4955632;29;20035;-78
2022/05/09 02:56:02;;;;;;;13.00;10.48;;;11.80;99.90;;;;;;4956151;28;20035;-79
2022/05/09 02:58:28;;;;;;;11.48;10.48;;;11.70;99.90;;;;;;4956630;28;20160;-79
2022/05/09 03:00:53;;;;;;;11.63;9.60;;;11.60;99.90;;;;;;4954901;28;20420;-79
2022/05/09 03:06:03;;;;;;;12.45;11.45;;;11.50;99.90;;;;;;4956753;29;20529;-78
2022/05/09 03:08:29;;;;;;;12.00;10.90;;;11.50;99.90;;;;;;4957452;28;20035;-78
2022/05/09 03:10:55;;;;;;;12.13;10.95;;;11.40;99.90;;;;;;4955884;28;20027;-79
2022/05/09 03:13:21;;;;;;;15.57;11.32;;;11.40;99.90;;;;;;4955956;29;20043;-79
2022/05/09 03:15:47;;;;;;;11.27;10.25;;;11.40;99.90;;;;;;4957329;28;20333;-78
2022/05/09 03:18:16;;;;;;;13.25;11.88;;;11.30;99.90;;;;;;4955755;29;20035;-79
2022/05/09 03:20:41;;;;;;;18.33;13.45;;;11.20;99.90;;;;;;4956864;28;20035;-79
2022/05/09 03:23:08;;;;;;;13.13;11.82;;;11.20;99.90;;;;;;4955335;28;20476;-79
2022/05/09 03:25:36;;;;;;;12.85;11.48;;;11.20;99.90;;;;;;4956065;28;20039;-79
2022/05/09 03:28:03;;;;;;;12.57;11.38;;;11.10;99.90;;;;;;4956503;28;20031;-80
2022/05/09 03:30:30;;;;;;;12.75;11.68;;;11.10;99.90;;;;;;4956645;28;20046;-79
2022/05/09 03:32:55;;;;;;;12.18;10.57;;;11.10;99.90;;;;;;4955612;28;20468;-79
2022/05/09 03:35:21;;;;;;;12.02;10.73;;;11.00;99.90;;;;;;4955864;28;20046;-78
2022/05/09 03:37:47;;;;;;;13.15;10.98;;;11.10;99.90;;;;;;4955198;29;20046;-78
2022/05/09 03:40:13;;;;;;;12.98;11.68;;;11.10;99.90;;;;;;4956832;28;20031;-80
2022/05/09 03:42:39;;;;;;;12.82;11.25;;;11.00;99.90;;;;;;4955263;28;20108;-78
2022/05/09 03:45:06;;;;;;;12.98;11.10;;;11.00;99.90;;;;;;4956393;28;20031;-80
2022/05/09 03:47:32;;;;;;;13.55;12.30;;;11.00;99.90;;;;;;4956142;28;20034;-79
2022/05/09 03:49:57;;;;;;;12.77;11.35;;;11.10;99.90;;;;;;4956012;28;20023;-78
2022/05/09 03:52:24;;;;;;;11.85;10.85;;;11.20;99.90;;;;;;4955249;28;20037;-80
2022/05/09 03:54:50;;;;;;;11.63;10.48;;;11.20;99.90;;;;;;4955590;28;20058;-78
2022/05/09 03:57:15;;;;;;;12.93;11.73;;;11.30;99.90;;;;;;4955467;28;20078;-79
2022/05/09 03:59:41;;;;;;;12.32;11.20;;;11.20;99.90;;;;;;4955807;28;20050;-80
2022/05/09 04:02:07;;;;;;;11.85;10.75;;;11.20;99.90;;;;;;4954181;28;20090;-79
2022/05/09 04:04:33;;;;;;;12.55;11.35;;;11.10;99.90;;;;;;4953802;29;20032;-79
2022/05/09 04:06:58;;;;;;;12.18;10.98;;;11.10;99.90;;;;;;4956121;28;20035;-79
2022/05/09 04:09:24;;;;;;;13.20;12.00;;;11.10;99.90;;;;;;4954928;28;20031;-79
2022/05/09 04:11:50;;;;;;;12.20;11.02;;;11.10;99.90;;;;;;4954197;28;20031;-79
2022/05/09 04:16:49;;;;;;;12.10;10.95;;;11.10;99.90;;;;;;4954286;29;20035;-80
2022/05/09 04:17:03;;;;;;;12.07;11.00;;;11.20;99.90;;;;;;4955910;28;20038;-79
2022/05/09 04:19:29;;;;;;;12.68;11.32;;;11.30;99.90;;;;;;4955062;28;20119;-78
2022/05/09 04:21:54;;;;;;;12.18;10.95;;;11.50;99.90;;;;;;4953904;28;20082;-79
2022/05/09 04:24:20;;;;;;;11.65;10.25;;;11.70;99.90;;;;;;4953901;29;20031;-79
2022/05/09 04:26:45;;;;;;;11.90;10.60;;;11.90;99.90;;;;;;4955864;28;20023;-80
2022/05/09 04:29:11;;;;;;;11.02;10.00;;;12.10;99.90;;;;;;4955769;28;20049;-79
2022/05/09 04:31:37;;;;;;;11.40;9.32;;;12.40;99.90;;;;;;4955078;28;20058;-79
2022/05/09 04:34:03;;;;;;;13.43;10.57;;;12.50;99.90;;;;;;4954432;29;20054;-80
2022/05/09 04:36:29;;;;;;;17.67;10.80;;;12.90;99.90;;;;;;4953895;29;20396;-78
2022/05/09 04:38:55;;;;;;;9.00;8.13;;;13.10;99.90;;;;;;4954028;29;20030;-79
2022/05/09 04:41:22;;;;;;;9.05;8.25;;;13.20;99.90;;;;;;4955762;28;20046;-78
2022/05/09 04:43:48;;;;;;;9.80;8.90;;;13.30;99.90;;;;;;4955159;28;20027;-79
2022/05/09 04:46:16;;;;;;;11.02;9.80;;;13.40;99.90;;;;;;4953583;28;20027;-81
2022/05/09 04:48:43;;;;;;;10.63;8.40;;;13.60;99.90;;;;;;4956583;28;20063;-79
2022/05/09 04:51:09;;;;;;;10.02;8.82;;;13.70;99.90;;;;;;4954407;28;20078;-80
2022/05/09 04:53:35;;;;;;;9.25;8.13;;;13.80;99.90;;;;;;4954221;29;20031;-78
2022/05/09 04:56:01;;;;;;;9.27;8.38;;;14.10;99.90;;;;;;4953847;29;20133;-79
2022/05/09 04:58:27;;;;;;;8.32;7.53;;;14.30;99.90;;;;;;4957440;28;20035;-79
2022/05/09 05:00:53;;;;;;;9.25;8.45;;;14.70;99.90;;;;;;4956240;28;20491;-80
2022/05/09 05:03:18;;;;;;;8.45;7.57;;;15.30;99.90;;;;;;4953998;29;20086;-80
2022/05/09 05:05:44;;;;;;;7.80;6.95;;;15.90;99.90;;;;;;4954372;29;20117;-79
2022/05/09 05:08:13;;;;;;;8.40;7.68;;;16.40;99.90;;;;;;4955841;28;20403;-78
2022/05/09 05:10:39;;;;;;;8.13;6.88;;;16.50;99.90;;;;;;4953600;28;20075;-80
2022/05/09 05:13:04;;;;;;;10.30;7.65;;;16.60;99.90;;;;;;4953775;28;20023;-79
2022/05/09 05:15:31;;;;;;;8.38;7.68;;;17.00;99.90;;;;;;4955099;28;20043;-79
2022/05/09 05:17:57;;;;;;;8.13;7.32;;;17.60;99.90;;;;;;4953778;28;20166;-80
2022/05/09 05:20:22;;;;;;;9.70;7.50;;;17.80;99.90;;;;;;4954082;29;20572;-80
2022/05/09 05:22:49;;;;;;;10.23;7.40;;;17.80;99.90;;;;;;4954634;28;20043;-79
2022/05/09 05:25:21;;;;;;;7.88;7.03;;;18.20;99.90;;;;;;4955700;28;20166;-81
2022/05/09 05:27:49;;;;;;;8.95;7.05;;;18.70;99.90;;;;;;4953825;28;20028;-80
2022/05/09 05:30:16;;;;;;;10.60;7.68;;;19.30;99.90;;;;;;4954054;29;20334;-79
2022/05/09 05:32:42;;;;;;;7.90;7.03;;;19.00;99.90;;;;;;4955204;28;20035;-79
2022/05/09 05:35:22;;;;;;;8.50;7.43;;;19.20;99.90;;;;;;4953490;29;20042;-79
2022/05/09 05:37:48;;;;;;;8.55;7.38;;;19.60;99.90;;;;;;4954825;28;20031;-79
2022/05/09 05:40:14;;;;;;;8.57;7.30;;;19.70;99.90;;;;;;4954766;28;20499;-79
2022/05/09 05:42:42;;;;;;;10.95;7.90;;;19.60;99.90;;;;;;4953308;28;20027;-79
2022/05/09 05:45:09;;;;;;;8.32;7.35;;;19.20;99.90;;;;;;4954397;29;20369;-80
2022/05/09 05:47:34;;;;;;;11.00;7.72;;;20.10;99.90;;;;;;4959353;29;20023;-78
2022/05/09 05:50:00;;;;;;;7.78;6.97;;;19.40;99.90;;;;;;4959356;28;20031;-80
2022/05/09 05:52:26;;;;;;;8.05;7.32;;;18.80;99.90;;;;;;4956686;28;20027;-80
2022/05/09 05:54:51;;;;;;;7.97;7.28;;;19.60;99.90;;;;;;4957340;28;20055;-78
2022/05/09 05:57:25;;;;;;;8.70;7.95;;;19.70;99.90;;;;;;4958347;28;20038;-80
2022/05/09 05:59:57;;;;;;;8.25;7.45;;;19.40;99.90;;;;;;4959367;29;20028;-79
2022/05/09 06:02:24;;;;;;;9.05;7.32;;;19.80;99.90;;;;;;4961184;28;20035;-79
2022/05/09 06:04:50;;;;;;;8.38;7.00;;;20.60;99.90;;;;;;4961328;28;20023;-78
2022/05/09 06:07:17;;;;;;;8.13;7.45;;;19.50;99.90;;;;;;4958190;29;20058;-80
2022/05/09 06:09:44;;;;;;;8.73;7.70;;;19.10;99.90;;;;;;4957499;29;20070;-79
2022/05/09 06:12:11;;;;;;;8.50;7.80;;;19.10;99.90;;;;;;4960169;28;20114;-79
2022/05/09 06:14:38;;;;;;;8.35;7.65;;;18.80;99.90;;;;;;4958382;28;20023;-80
2022/05/09 06:17:07;;;;;;;9.77;8.45;;;18.60;99.90;;;;;;4957276;29;20039;-79
2022/05/09 06:19:33;;;;;;;10.77;7.53;;;18.10;99.90;;;;;;4960390;28;20035;-80
2022/05/09 06:21:59;;;;;;;10.93;7.90;;;17.90;99.90;;;;;;4957987;28;20032;-80
2022/05/09 06:24:25;;;;;;;8.63;7.65;;;17.70;99.90;;;;;;4957306;29;20035;-79
2022/05/09 06:26:51;;;;;;;9.18;8.15;;;17.40;99.90;;;;;;4958466;28;20502;-80
2022/05/09 06:29:18;;;;;;;9.07;8.15;;;17.40;99.90;;;;;;4957885;29;20036;-80
2022/05/09 06:31:45;;;;;;;9.93;7.82;;;17.40;99.90;;;;;;4957763;28;20109;-79
2022/05/09 06:34:13;;;;;;;10.93;8.75;;;17.50;99.90;;;;;;4957176;28;20027;-79
2022/05/09 06:36:44;;;;;;;10.05;8.02;;;17.20;99.90;;;;;;4957751;28;20035;-80
2022/05/09 06:39:10;;;;;;;9.35;8.60;;;17.30;99.90;;;;;;4957217;29;20035;-79
2022/05/09 06:41:36;;;;;;;8.73;8.00;;;17.40;99.90;;;;;;4957088;28;20039;-79
2022/05/09 06:44:02;;;;;;;8.90;8.18;;;17.60;99.90;;;;;;4957816;28;20034;-79
2022/05/09 06:46:28;;;;;;;9.02;8.23;;;17.40;99.90;;;;;;4960043;29;20031;-78
2022/05/09 06:48:53;;;;;;;12.38;8.00;;;17.50;99.90;;;;;;4959191;28;20106;-79
2022/05/09 06:51:19;;;;;;;8.20;7.50;;;17.40;99.90;;;;;;4957021;28;20054;-79
2022/05/09 06:53:45;;;;;;;9.05;8.25;;;17.50;99.90;;;;;;4958286;28;20031;-79
2022/05/09 06:56:11;;;;;;;9.10;8.25;;;17.40;99.90;;;;;;4960868;28;20039;-78
2022/05/09 06:58:39;;;;;;;10.23;7.70;;;17.40;99.90;;;;;;4958979;29;20035;-78
2022/05/09 07:01:15;;;;;;;9.50;8.05;;;17.40;99.90;;;;;;4959074;28;20040;-79
2022/05/09 07:03:42;;;;;;;8.82;7.93;;;17.30;99.90;;;;;;4959891;28;20027;-79
2022/05/09 07:06:09;;;;;;;8.20;7.50;;;17.40;99.90;;;;;;4959417;29;20480;-79
2022/05/09 07:08:34;;;;;;;8.75;7.97;;;17.60;99.90;;;;;;4958317;28;20063;-80
2022/05/09 07:11:02;;;;;;;8.35;7.55;;;17.50;99.90;;;;;;4955389;28;20042;-78
2022/05/09 07:13:28;;;;;;;8.68;7.88;;;17.70;99.90;;;;;;4955653;29;20035;-80
2022/05/09 07:15:57;;;;;;;8.48;7.78;;;17.50;99.90;;;;;;4958884;28;20403;-80
2022/05/09 07:18:27;;;;;;;8.75;8.02;;;17.60;99.90;;;;;;4958473;28;20078;-79
2022/05/09 07:20:53;;;;;;;8.80;8.00;;;17.50;99.90;;;;;;4959163;28;20043;-80
2022/05/09 07:23:19;;;;;;;10.23;7.75;;;17.90;99.90;;;;;;4958504;29;20519;-79
2022/05/09 07:25:44;;;;;;;8.23;7.55;;;18.10;99.90;;;;;;4966640;29;20035;-79
2022/05/09 07:28:12;;;;;;;7.97;7.32;;;18.30;99.90;;;;;;4955669;29;20045;-79
2022/05/09 07:30:38;;;;;;;7.82;7.13;;;18.40;99.90;;;;;;4957461;28;20035;-79
2022/05/09 07:33:04;;;;;;;7.50;6.90;;;18.40;99.90;;;;;;4957655;28;20180;-80
2022/05/09 07:35:32;;;;;;;6.95;6.35;;;18.70;99.90;;;;;;4956334;29;20035;-79
2022/05/09 07:37:57;;;;;;;7.88;7.18;;;18.60;99.90;;;;;;4957562;28;20484;-79
2022/05/09 07:40:23;;;;;;;7.18;6.57;;;18.60;99.90;;;;;;4956372;28;20086;-79
2022/05/09 07:42:49;;;;;;;7.22;6.63;;;18.80;99.90;;;;;;4959600;28;20035;-80
2022/05/09 07:45:17;;;;;;;7.72;7.00;;;18.70;99.90;;;;;;4958388;29;20468;-79
2022/05/09 07:47:43;;;;;;;7.30;6.70;;;18.70;99.90;;;;;;4957632;28;20698;-80
2022/05/09 07:50:10;;;;;;;8.20;7.50;;;18.90;99.90;;;;;;4957118;28;20038;-80
2022/05/09 07:52:36;;;;;;;8.00;7.20;;;19.00;99.90;;;;;;4956428;28;20038;-80
2022/05/09 07:55:03;;;;;;;8.15;7.35;;;18.90;99.90;;;;;;4956290;28;20028;-80
2022/05/09 07:57:29;;;;;;;8.52;6.30;;;19.20;99.90;;;;;;4957824;28;20062;-80
2022/05/09 07:59:54;;;;;;;7.55;6.63;;;19.10;99.90;;;;;;4956326;28;20032;-79
2022/05/09 08:02:20;;;;;;;7.15;6.55;;;19.10;99.90;;;;;;4957734;28;20046;-81
2022/05/09 08:04:45;;;;;;;7.00;6.40;;;19.10;99.90;;;;;;4955530;28;20055;-79
2022/05/09 08:07:13;;;;;;;8.85;7.07;;;19.10;99.90;;;;;;4959046;28;20035;-80
2022/05/09 08:09:39;;;;;;;7.68;6.90;;;19.30;99.90;;;;;;4958575;28;20149;-80
2022/05/09 08:12:05;;;;;;;7.10;6.53;;;19.40;99.90;;;;;;4957931;28;20035;-79
2022/05/09 08:14:30;;;;;;;7.00;6.40;;;19.60;99.90;;;;;;4954797;28;20028;-78
2022/05/09 08:16:57;;;;;;;8.30;7.57;;;19.50;99.90;;;;;;4956848;29;20047;-80
2022/05/09 08:19:23;;;;;;;8.77;6.68;;;19.40;99.90;;;;;;4957915;29;20447;-79
2022/05/09 08:21:50;;;;;;;7.72;6.93;;;19.40;99.90;;;;;;4957057;28;20062;-79
2022/05/09 08:24:17;;;;;;;6.53;5.93;;;19.80;99.90;;;;;;4957038;29;20023;-78
2022/05/09 08:26:42;;;;;;;7.10;6.38;;;19.70;99.90;;;;;;4958021;28;20026;-80
2022/05/09 08:29:09;;;;;;;6.65;6.05;;;19.60;99.90;;;;;;4957739;29;20023;-77
2022/05/09 08:31:35;;;;;;;6.65;6.03;;;19.80;99.90;;;;;;4965935;28;20369;-80
2022/05/09 08:34:00;;;;;;;6.78;5.78;;;20.10;99.90;;;;;;4965904;29;20050;-81
2022/05/09 08:39:11;;;;;;;7.90;6.43;;;20.20;99.90;;;;;;4966135;29;20098;-80
2022/05/09 08:41:52;;;;;;;5.25;4.85;;;20.30;99.90;;;;;;4964193;28;20070;-80
2022/05/09 08:44:29;;;;;;;6.13;5.53;;;20.20;99.90;;;;;;4966491;28;20023;-80
2022/05/09 08:47:17;;;;;;;6.35;5.85;;;20.40;99.90;;;;;;4964768;29;20027;-80
2022/05/09 08:50:10;;;;;;;6.10;5.50;;;20.50;99.90;;;;;;4965816;28;20296;-78
2022/05/09 08:52:49;;;;;;;6.07;5.57;;;20.60;99.90;;;;;;4964693;28;20035;-79
2022/05/09 08:55:26;;;;;;;7.78;6.15;;;20.60;99.90;;;;;;4963128;29;20089;-79
2022/05/09 08:58:02;;;;;;;5.70;5.20;;;20.50;99.90;;;;;;4963754;29;20039;-79
2022/05/09 09:00:31;;;;;;;7.00;6.28;;;20.30;99.90;;;;;;4961073;28;20023;-80
2022/05/09 09:03:14;;;;;;;7.00;5.82;;;20.20;99.90;;;;;;4953959;28;20094;-80
2022/05/09 09:05:44;;;;;;;7.70;6.35;;;20.60;99.90;;;;;;4954714;29;20032;-80
2022/05/09 09:08:18;;;;;;;6.72;6.13;;;20.90;99.90;;;;;;4957257;28;20054;-80
2022/05/09 09:11:15;;;;;;;5.40;4.93;;;20.60;99.90;;;;;;4955998;29;20047;-80
2022/05/09 09:14:05;;;;;;;5.07;4.57;;;20.90;99.90;;;;;;4956351;28;20042;-79
2022/05/09 09:16:52;;;;;;;5.53;5.10;;;21.10;99.90;;;;;;4957071;28;20502;-79
2022/05/09 09:19:45;;;;;;;5.28;4.88;;;21.20;99.90;;;;;;4958419;29;20344;-79
2022/05/09 09:22:57;;;;;;;5.85;5.10;;;21.40;99.90;;;;;;4964922;28;20460;-80
2022/05/09 09:25:42;;;;;;;6.65;5.47;;;21.40;99.90;;;;;;4959834;28;20073;-80
2022/05/09 09:28:15;;;;;;;5.13;4.72;;;21.40;99.90;;;;;;4959609;29;20029;-80
2022/05/09 09:30:43;;;;;;;5.80;5.30;;;21.80;99.90;;;;;;4958206;28;20424;-82
2022/05/09 09:33:12;;;;;;;5.20;4.70;;;21.50;99.90;;;;;;4960761;28;20027;-80
2022/05/09 09:36:05;;;;;;;5.50;5.00;;;21.20;99.90;;;;;;4963829;28;20027;-79
2022/05/09 09:38:42;;;;;;;5.30;4.88;;;21.40;99.90;;;;;;4962283;29;20555;-81
2022/05/09 09:41:29;;;;;;;6.53;5.47;;;21.80;99.90;;;;;;4960418;28;20035;-80
2022/05/09 09:44:05;;;;;;;5.70;4.50;;;21.90;99.90;;;;;;4960416;28;20023;-80
2022/05/09 09:46:31;;;;;;;5.13;4.50;;;21.70;99.90;;;;;;4960036;28;20037;-79
2022/05/09 09:49:07;;;;;;;5.75;4.82;;;21.40;99.90;;;;;;4960250;28;20640;-80
2022/05/09 09:51:44;;;;;;;4.40;4.00;;;21.80;99.90;;;;;;4960652;28;20507;-81
2022/05/09 09:54:10;;;;;;;11.32;6.47;;;22.10;99.60;;;;;;4960513;28;20090;-79
2022/05/09 09:56:36;;;;;;;5.03;4.15;;;22.20;99.90;;;;;;4958061;29;20041;-80
2022/05/09 09:59:13;;;;;;;4.00;3.65;;;22.50;99.30;;;;;;4958900;28;20043;-79
2022/05/09 10:01:39;;;;;;;4.00;3.70;;;22.60;98.50;;;;;;4957941;28;20098;-79
2022/05/09 10:04:28;;;;;;;4.28;3.85;;;22.60;98.20;;;;;;4959022;28;20488;-80
2022/05/09 10:07:09;;;;;;;9.07;4.43;;;23.00;97.60;;;;;;4959039;28;20067;-80
2022/05/09 10:09:40;;;;;;;5.65;3.53;;;23.10;97.30;;;;;;4961383;28;20020;-78
2022/05/09 10:12:35;;;;;;;12.30;5.00;;;23.10;96.60;;;;;;4959201;28;20039;-79
2022/05/09 10:15:02;;;;;;;3.60;3.30;;;23.60;96.20;;;;;;4954690;28;20408;-79
2022/05/09 10:17:33;;;;;;;7.10;4.32;;;23.60;95.80;;;;;;4959075;28;20035;-79
2022/05/09 10:20:00;;;;;;;6.88;3.70;;;23.40;95.70;;;;;;4958045;28;20078;-80
2022/05/09 10:25:22;;;;;;;3.67;3.38;;;23.30;95.90;;;;;;4959224;29;20039;-80
2022/05/09 10:28:07;;;;;;;7.05;4.10;;;23.20;95.70;;;;;;4957846;28;20407;-81
2022/05/09 10:30:36;;;;;;;4.22;3.20;;;23.50;94.90;;;;;;4958324;28;20041;-80
2022/05/09 10:33:18;;;;;;;4.10;3.70;;;23.60;94.70;;;;;;4957733;28;20027;-78
2022/05/09 10:35:57;;;;;;;3.85;3.55;;;23.70;94.90;;;;;;4956995;29;20031;-79
2022/05/09 10:38:44;;;;;;;6.05;4.03;;;23.70;95.00;;;;;;4958716;28;20035;-80
2022/05/09 10:41:29;;;;;;;4.60;4.03;;;23.70;95.60;;;;;;4958157;28;20050;-79
2022/05/09 10:43:58;;;;;;;5.93;4.40;;;24.30;95.30;;;;;;4956406;28;20062;-80
2022/05/09 10:46:40;;;;;;;4.93;4.32;;;24.40;94.80;;;;;;4957472;29;20029;-78
2022/05/09 10:49:12;;;;;;;5.00;4.50;;;24.50;94.50;;;;;;4959120;28;20043;-80
2022/05/09 10:51:55;;;;;;;5.28;4.78;;;23.90;94.80;;;;;;4957346;28;20126;-78
2022/05/09 10:54:52;;;;;;;4.47;4.10;;;23.50;95.90;;;;;;4958597;28;20084;-81
2022/05/09 10:57:23;;;;;;;8.13;5.65;;;23.90;95.60;;;;;;4957564;29;20122;-80
2022/05/09 10:59:50;;;;;;;5.05;4.40;;;24.30;94.90;;;;;;4957629;29;20481;-81
2022/05/09 11:02:29;;;;;;;6.00;4.45;;;24.00;95.10;;;;;;4958649;28;20106;-80
2022/05/09 11:04:55;;;;;;;5.03;4.55;;;24.40;95.10;;;;;;4957337;28;20031;-81
2022/05/09 11:07:24;;;;;;;6.03;4.95;;;24.30;95.00;;;;;;4958015;28;20038;-82
2022/05/09 11:10:19;;;;;;;5.15;4.75;;;24.40;94.80;;;;;;4957455;29;20388;-79
2022/05/09 11:12:48;;;;;;;6.32;4.18;;;24.00;94.90;;;;;;4957431;28;20122;-79
2022/05/09 11:15:32;;;;;;;4.45;4.05;;;24.00;95.30;;;;;;4957153;29;20031;-81
2022/05/09 11:18:08;;;;;;;4.32;3.92;;;23.90;95.50;;;;;;4956522;29;20031;-80
2022/05/09 11:20:46;;;;;;;3.22;3.03;;;23.80;94.70;;;;;;4958138;28;20098;-80
2022/05/09 11:23:48;;;;;;;6.28;3.92;;;23.80;93.60;;;;;;4956899;29;20028;-80
2022/05/09 11:26:41;;;;;;;3.50;3.22;;;24.00;93.00;;;;;;4958621;28;20023;-79
2022/05/09 11:29:27;;;;;;;5.47;3.35;;;24.20;92.50;;;;;;4956130;28;20525;-81
2022/05/09 11:31:55;;;;;;;3.90;3.47;;;24.20;92.30;;;;;;4958847;28;20122;-79
2022/05/09 11:34:27;;;;;;;4.93;2.92;;;24.70;91.60;;;;;;4960097;28;20464;-80
2022/05/09 11:37:21;;;;;;;3.38;3.08;;;24.80;91.10;;;;;;4963531;28;20067;-79
2022/05/09 11:40:06;;;;;;;3.15;2.92;;;25.20;90.80;;;;;;4962658;28;20019;-78
2022/05/09 11:45:44;;;;;;;3.65;3.35;;;25.40;90.40;;;;;;4961436;29;20058;-80
2022/05/09 11:48:28;;;;;;;3.40;3.20;;;25.80;89.10;;;;;;4960956;28;20159;-79
2022/05/09 11:50:57;;;;;;;3.05;2.75;;;26.30;89.20;;;;;;4957453;28;20033;-79
2022/05/09 11:53:26;;;;;;;4.50;2.90;;;26.50;88.40;;;;;;4959032;29;20023;-78
2022/05/09 11:55:52;;;;;;;4.32;2.75;;;26.50;85.80;;;;;;4958428;28;20082;-81
2022/05/09 11:58:18;;;;;;;4.90;4.15;;;26.10;86.30;;;;;;4956732;29;20047;-80
2022/05/09 12:00:47;;;;;;;3.20;2.90;;;26.30;84.50;;;;;;4958756;28;20598;-79
2022/05/09 12:03:14;;;;;;;3.22;2.92;;;26.50;83.30;;;;;;4957566;29;20068;-81
2022/05/09 12:05:39;;;;;;;3.30;2.95;;;26.40;82.80;;;;;;4958718;28;20034;-80
2022/05/09 12:08:08;;;;;;;5.95;3.25;;;25.60;82.90;;;;;;4957127;29;20464;-79
2022/05/09 12:10:38;;;;;;;3.15;2.85;;;25.20;84.90;;;;;;4958241;29;20035;-80
2022/05/09 12:13:06;;;;;;;3.75;2.92;;;25.10;83.80;;;;;;4959755;28;20100;-79
2022/05/09 12:15:33;;;;;;;2.92;2.50;;;25.00;83.80;;;;;;4958182;28;20126;-79
2022/05/09 12:17:58;;;;;;;2.88;2.63;;;24.70;83.40;;;;;;4957764;28;20027;-79
2022/05/09 12:20:26;;;;;;;3.63;2.83;;;24.70;82.20;;;;;;4957675;28;20028;-79
2022/05/09 12:22:53;;;;;;;4.15;2.97;;;24.60;82.50;;;;;;4956066;28;20109;-80
2022/05/09 12:25:36;;;;;;;6.47;2.97;;;24.50;82.90;;;;;;4957359;28;20027;-80
2022/05/09 12:28:08;;;;;;;7.30;3.22;;;24.40;82.90;;;;;;4959427;29;20086;-79
2022/05/09 12:30:44;;;;;;;4.97;3.15;;;24.50;83.50;;;;;;4962458;29;20027;-79
2022/05/09 12:33:41;;;;;;;4.22;3.08;;;24.40;83.90;;;;;;4957681;28;20035;-79
2022/05/09 12:36:06;;;;;;;4.72;3.40;;;24.10;84.20;;;;;;4958471;29;20024;-80
2022/05/09 12:38:35;;;;;;;5.68;3.30;;;24.50;84.60;;;;;;4970562;28;20023;-80
2022/05/09 12:41:15;;;;;;;4.68;3.25;;;24.70;84.40;;;;;;4972910;28;20019;-83
2022/05/09 12:43:53;;;;;;;3.38;3.08;;;25.00;83.80;;;;;;4979134;28;20110;-81
2022/05/09 12:46:31;;;;;;;2.90;2.65;;;25.40;83.10;;;;;;4978686;28;20046;-82
2022/05/09 12:48:59;;;;;;;3.10;2.80;;;25.60;81.40;;;;;;4970230;28;20046;-81
2022/05/09 12:51:27;;;;;;;3.22;2.92;;;25.90;81.60;;;;;;4958251;28;20106;-81
2022/05/09 12:53:54;;;;;;;3.42;2.88;;;25.70;81.70;;;;;;4958043;29;20047;-80
2022/05/09 12:56:22;;;;;;;3.70;3.40;;;25.60;81.80;;;;;;4958735;28;20038;-79
2022/05/09 12:59:03;;;;;;;5.75;3.65;;;26.00;81.00;;;;;;4957922;29;20047;-79
2022/05/09 13:01:29;;;;;;;4.88;2.70;;;26.30;80.30;;;;;;4962208;28;20058;-79
2022/05/09 13:03:59;;;;;;;3.40;3.10;;;26.40;80.40;;;;;;4961895;29;20051;-79
2022/05/09 13:06:37;;;;;;;5.23;3.37;;;26.50;79.80;;;;;;4960956;28;20031;-79
2022/05/09 13:09:19;;;;;;;3.05;2.85;;;26.50;79.20;;;;;;4962101;28;20395;-77